sensor_id;sensor_type;location;lat;lon;timestamp;P1;durP1;ratioP1;P2;durP2;ratioP2
27863;SDS011;15980;51.092;13.916;2022-12-10T00:00:49;80.43;;;25.27;;
27863;SDS011;15980;51.092;13.916;2022-12-10T00:05:54;79.22;;;23.40;;
27863;SDS011;15980;51.092;13.916;2022-12-10T00:10:59;81.57;;;23.85;;
27863;SDS011;15980;51.092;13.916;2022-12-10T00:16:10;76.95;;;22.65;;
27863;SDS011;15980;51.092;13.916;2022-12-10T00:21:17;70.25;;;22.40;;
27863;SDS011;15980;51.092;13.916;2022-12-10T00:26:25;78.72;;;23.02;;
27863;SDS011;15980;51.092;13.916;2022-12-10T00:31:34;77.78;;;22.73;;
27863;SDS011;15980;51.092;13.916;2022-12-10T00:36:41;69.63;;;20.77;;
27863;SDS011;15980;51.092;13.916;2022-12-10T00:41:48;74.35;;;22.45;;
27863;SDS011;15980;51.092;13.916;2022-12-10T00:46:56;77.13;;;22.77;;
27863;SDS011;15980;51.092;13.916;2022-12-10T00:52:01;73.57;;;22.35;;
27863;SDS011;15980;51.092;13.916;2022-12-10T00:57:06;70.13;;;22.08;;
27863;SDS011;15980;51.092;13.916;2022-12-10T01:02:13;80.47;;;22.00;;
27863;SDS011;15980;51.092;13.916;2022-12-10T01:07:18;70.43;;;21.33;;
27863;SDS011;15980;51.092;13.916;2022-12-10T01:12:23;68.90;;;20.25;;
27863;SDS011;15980;51.092;13.916;2022-12-10T01:17:31;64.75;;;20.60;;
27863;SDS011;15980;51.092;13.916;2022-12-10T01:22:36;68.82;;;20.48;;
27863;SDS011;15980;51.092;13.916;2022-12-10T01:27:41;62.70;;;19.33;;
27863;SDS011;15980;51.092;13.916;2022-12-10T01:32:48;68.60;;;20.98;;
27863;SDS011;15980;51.092;13.916;2022-12-10T01:37:53;66.05;;;20.67;;
27863;SDS011;15980;51.092;13.916;2022-12-10T01:42:58;64.93;;;19.35;;
27863;SDS011;15980;51.092;13.916;2022-12-10T01:48:05;62.65;;;19.23;;
27863;SDS011;15980;51.092;13.916;2022-12-10T01:53:11;70.35;;;21.75;;
27863;SDS011;15980;51.092;13.916;2022-12-10T01:58:17;55.67;;;18.92;;
27863;SDS011;15980;51.092;13.916;2022-12-10T02:03:31;74.07;;;20.75;;
27863;SDS011;15980;51.092;13.916;2022-12-10T02:08:44;64.40;;;19.60;;
27863;SDS011;15980;51.092;13.916;2022-12-10T02:13:57;54.45;;;18.38;;
27863;SDS011;15980;51.092;13.916;2022-12-10T02:19:12;63.33;;;19.10;;
27863;SDS011;15980;51.092;13.916;2022-12-10T02:24:23;60.38;;;18.90;;
27863;SDS011;15980;51.092;13.916;2022-12-10T02:29:34;59.15;;;18.65;;
27863;SDS011;15980;51.092;13.916;2022-12-10T02:34:41;64.20;;;19.55;;
27863;SDS011;15980;51.092;13.916;2022-12-10T02:39:51;57.83;;;18.88;;
27863;SDS011;15980;51.092;13.916;2022-12-10T02:45:01;49.33;;;18.05;;
27863;SDS011;15980;51.092;13.916;2022-12-10T02:50:08;58.67;;;17.38;;
27863;SDS011;15980;51.092;13.916;2022-12-10T02:55:18;53.95;;;17.05;;
27863;SDS011;15980;51.092;13.916;2022-12-10T03:00:26;53.97;;;17.23;;
27863;SDS011;15980;51.092;13.916;2022-12-10T03:05:33;55.78;;;16.98;;
27863;SDS011;15980;51.092;13.916;2022-12-10T03:10:47;53.67;;;17.33;;
27863;SDS011;15980;51.092;13.916;2022-12-10T03:15:59;54.10;;;17.60;;
27863;SDS011;15980;51.092;13.916;2022-12-10T03:21:06;60.25;;;17.83;;
27863;SDS011;15980;51.092;13.916;2022-12-10T03:26:14;60.80;;;19.40;;
27863;SDS011;15980;51.092;13.916;2022-12-10T03:31:24;56.33;;;17.05;;
27863;SDS011;15980;51.092;13.916;2022-12-10T03:36:29;58.15;;;16.25;;
27863;SDS011;15980;51.092;13.916;2022-12-10T03:41:34;53.13;;;16.50;;
27863;SDS011;15980;51.092;13.916;2022-12-10T03:46:42;50.90;;;15.85;;
27863;SDS011;15980;51.092;13.916;2022-12-10T03:51:47;58.25;;;17.08;;
27863;SDS011;15980;51.092;13.916;2022-12-10T03:56:52;52.30;;;18.25;;
27863;SDS011;15980;51.092;13.916;2022-12-10T04:02:00;59.38;;;17.20;;
27863;SDS011;15980;51.092;13.916;2022-12-10T04:07:04;63.28;;;18.48;;
27863;SDS011;15980;51.092;13.916;2022-12-10T04:12:09;60.97;;;18.15;;
27863;SDS011;15980;51.092;13.916;2022-12-10T04:17:17;61.08;;;17.80;;
27863;SDS011;15980;51.092;13.916;2022-12-10T04:22:22;55.85;;;17.42;;
27863;SDS011;15980;51.092;13.916;2022-12-10T04:27:39;58.90;;;17.63;;
27863;SDS011;15980;51.092;13.916;2022-12-10T04:32:46;55.08;;;15.98;;
27863;SDS011;15980;51.092;13.916;2022-12-10T04:37:51;52.72;;;16.38;;
27863;SDS011;15980;51.092;13.916;2022-12-10T04:42:56;62.17;;;18.88;;
27863;SDS011;15980;51.092;13.916;2022-12-10T04:48:03;56.80;;;17.17;;
27863;SDS011;15980;51.092;13.916;2022-12-10T04:53:08;61.72;;;18.92;;
27863;SDS011;15980;51.092;13.916;2022-12-10T04:58:13;54.83;;;17.52;;
27863;SDS011;15980;51.092;13.916;2022-12-10T05:03:21;65.57;;;19.02;;
27863;SDS011;15980;51.092;13.916;2022-12-10T05:08:26;60.53;;;18.38;;
27863;SDS011;15980;51.092;13.916;2022-12-10T05:13:32;63.80;;;19.02;;
27863;SDS011;15980;51.092;13.916;2022-12-10T05:18:40;70.25;;;19.48;;
27863;SDS011;15980;51.092;13.916;2022-12-10T05:23:45;70.20;;;19.33;;
27863;SDS011;15980;51.092;13.916;2022-12-10T05:28:53;70.75;;;19.25;;
27863;SDS011;15980;51.092;13.916;2022-12-10T05:34:02;72.72;;;20.13;;
27863;SDS011;15980;51.092;13.916;2022-12-10T05:39:09;71.13;;;19.25;;
27863;SDS011;15980;51.092;13.916;2022-12-10T05:44:14;70.20;;;20.05;;
27863;SDS011;15980;51.092;13.916;2022-12-10T05:49:22;62.95;;;18.55;;
27863;SDS011;15980;51.092;13.916;2022-12-10T05:54:27;62.75;;;18.25;;
27863;SDS011;15980;51.092;13.916;2022-12-10T05:59:32;63.45;;;17.95;;
27863;SDS011;15980;51.092;13.916;2022-12-10T06:04:39;65.05;;;18.67;;
27863;SDS011;15980;51.092;13.916;2022-12-10T06:09:44;70.68;;;19.90;;
27863;SDS011;15980;51.092;13.916;2022-12-10T06:14:49;68.90;;;18.85;;
27863;SDS011;15980;51.092;13.916;2022-12-10T06:19:56;71.47;;;21.70;;
27863;SDS011;15980;51.092;13.916;2022-12-10T06:25:02;69.60;;;19.48;;
27863;SDS011;15980;51.092;13.916;2022-12-10T06:30:08;74.90;;;21.05;;
27863;SDS011;15980;51.092;13.916;2022-12-10T06:35:17;76.07;;;20.50;;
27863;SDS011;15980;51.092;13.916;2022-12-10T06:40:21;74.07;;;20.33;;
27863;SDS011;15980;51.092;13.916;2022-12-10T06:45:26;81.03;;;20.52;;
27863;SDS011;15980;51.092;13.916;2022-12-10T06:50:34;75.65;;;21.63;;
27863;SDS011;15980;51.092;13.916;2022-12-10T06:55:39;68.07;;;19.40;;
27863;SDS011;15980;51.092;13.916;2022-12-10T07:00:44;74.63;;;19.60;;
27863;SDS011;15980;51.092;13.916;2022-12-10T07:05:51;79.20;;;21.13;;
27863;SDS011;15980;51.092;13.916;2022-12-10T07:10:56;69.15;;;20.90;;
27863;SDS011;15980;51.092;13.916;2022-12-10T07:16:02;70.32;;;20.15;;
27863;SDS011;15980;51.092;13.916;2022-12-10T07:21:17;73.30;;;20.25;;
27863;SDS011;15980;51.092;13.916;2022-12-10T07:26:23;74.47;;;20.92;;
27863;SDS011;15980;51.092;13.916;2022-12-10T07:31:28;72.82;;;20.67;;
27863;SDS011;15980;51.092;13.916;2022-12-10T07:36:35;71.78;;;18.85;;
27863;SDS011;15980;51.092;13.916;2022-12-10T07:41:40;74.80;;;20.60;;
27863;SDS011;15980;51.092;13.916;2022-12-10T07:46:45;71.75;;;21.58;;
27863;SDS011;15980;51.092;13.916;2022-12-10T07:51:52;75.93;;;21.63;;
27863;SDS011;15980;51.092;13.916;2022-12-10T07:56:57;69.90;;;21.25;;
27863;SDS011;15980;51.092;13.916;2022-12-10T08:02:02;79.00;;;20.90;;
27863;SDS011;15980;51.092;13.916;2022-12-10T08:07:11;76.68;;;20.50;;
27863;SDS011;15980;51.092;13.916;2022-12-10T08:12:16;78.10;;;21.98;;
27863;SDS011;15980;51.092;13.916;2022-12-10T08:17:21;73.88;;;22.10;;
27863;SDS011;15980;51.092;13.916;2022-12-10T08:22:29;74.03;;;21.33;;
27863;SDS011;15980;51.092;13.916;2022-12-10T08:27:35;77.63;;;21.83;;
27863;SDS011;15980;51.092;13.916;2022-12-10T08:32:40;81.55;;;21.95;;
27863;SDS011;15980;51.092;13.916;2022-12-10T08:37:47;81.70;;;20.75;;
27863;SDS011;15980;51.092;13.916;2022-12-10T08:42:52;75.80;;;20.10;;
27863;SDS011;15980;51.092;13.916;2022-12-10T08:47:57;70.00;;;19.08;;
27863;SDS011;15980;51.092;13.916;2022-12-10T08:53:05;69.45;;;20.48;;
27863;SDS011;15980;51.092;13.916;2022-12-10T08:58:10;64.30;;;18.95;;
27863;SDS011;15980;51.092;13.916;2022-12-10T09:03:15;68.53;;;20.27;;
27863;SDS011;15980;51.092;13.916;2022-12-10T09:08:23;66.22;;;18.80;;
27863;SDS011;15980;51.092;13.916;2022-12-10T09:13:28;66.68;;;21.45;;
27863;SDS011;15980;51.092;13.916;2022-12-10T09:18:33;63.10;;;19.60;;
27863;SDS011;15980;51.092;13.916;2022-12-10T09:23:40;60.25;;;18.30;;
27863;SDS011;15980;51.092;13.916;2022-12-10T09:28:46;65.57;;;20.45;;
27863;SDS011;15980;51.092;13.916;2022-12-10T09:33:51;64.28;;;21.27;;
27863;SDS011;15980;51.092;13.916;2022-12-10T09:39:00;67.43;;;20.38;;
27863;SDS011;15980;51.092;13.916;2022-12-10T09:44:07;63.10;;;20.35;;
27863;SDS011;15980;51.092;13.916;2022-12-10T09:49:18;64.50;;;20.70;;
27863;SDS011;15980;51.092;13.916;2022-12-10T09:54:34;59.60;;;19.08;;
27863;SDS011;15980;51.092;13.916;2022-12-10T10:04:51;67.68;;;20.65;;
27863;SDS011;15980;51.092;13.916;2022-12-10T10:10:02;62.28;;;19.17;;
27863;SDS011;15980;51.092;13.916;2022-12-10T10:15:12;59.33;;;18.40;;
27863;SDS011;15980;51.092;13.916;2022-12-10T10:20:20;56.37;;;17.60;;
27863;SDS011;15980;51.092;13.916;2022-12-10T10:25:30;55.78;;;19.27;;
27863;SDS011;15980;51.092;13.916;2022-12-10T10:30:35;59.85;;;19.38;;
27863;SDS011;15980;51.092;13.916;2022-12-10T10:35:42;57.38;;;19.50;;
27863;SDS011;15980;51.092;13.916;2022-12-10T10:40:52;52.75;;;18.08;;
27863;SDS011;15980;51.092;13.916;2022-12-10T10:45:58;61.00;;;18.95;;
27863;SDS011;15980;51.092;13.916;2022-12-10T10:51:07;62.65;;;19.85;;
27863;SDS011;15980;51.092;13.916;2022-12-10T10:56:23;61.95;;;19.08;;
27863;SDS011;15980;51.092;13.916;2022-12-10T11:01:43;60.47;;;18.92;;
27863;SDS011;15980;51.092;13.916;2022-12-10T11:06:50;54.33;;;18.42;;
27863;SDS011;15980;51.092;13.916;2022-12-10T11:12:03;55.08;;;19.27;;
27863;SDS011;15980;51.092;13.916;2022-12-10T11:17:16;56.13;;;19.38;;
27863;SDS011;15980;51.092;13.916;2022-12-10T11:22:26;61.83;;;21.63;;
27863;SDS011;15980;51.092;13.916;2022-12-10T11:27:39;64.00;;;20.10;;
27863;SDS011;15980;51.092;13.916;2022-12-10T11:33:05;51.78;;;17.88;;
27863;SDS011;15980;51.092;13.916;2022-12-10T11:38:26;47.75;;;16.67;;
27863;SDS011;15980;51.092;13.916;2022-12-10T11:49:12;48.17;;;16.85;;
27863;SDS011;15980;51.092;13.916;2022-12-10T11:54:29;46.58;;;17.42;;
27863;SDS011;15980;51.092;13.916;2022-12-10T11:59:49;47.42;;;15.43;;
27863;SDS011;15980;51.092;13.916;2022-12-10T12:05:09;34.78;;;12.02;;
27863;SDS011;15980;51.092;13.916;2022-12-10T12:16:05;41.47;;;15.05;;
27863;SDS011;15980;51.092;13.916;2022-12-10T12:21:14;40.78;;;15.20;;
27863;SDS011;15980;51.092;13.916;2022-12-10T12:26:21;44.70;;;14.93;;
27863;SDS011;15980;51.092;13.916;2022-12-10T12:31:37;35.95;;;13.40;;
27863;SDS011;15980;51.092;13.916;2022-12-10T12:36:43;36.13;;;13.70;;
27863;SDS011;15980;51.092;13.916;2022-12-10T12:41:50;38.83;;;14.25;;
27863;SDS011;15980;51.092;13.916;2022-12-10T12:47:10;83.25;;;24.65;;
27863;SDS011;15980;51.092;13.916;2022-12-10T12:52:28;52.63;;;17.85;;
27863;SDS011;15980;51.092;13.916;2022-12-10T13:04:27;36.63;;;13.88;;
27863;SDS011;15980;51.092;13.916;2022-12-10T13:09:33;54.28;;;16.80;;
27863;SDS011;15980;51.092;13.916;2022-12-10T13:25:55;34.58;;;14.43;;
27863;SDS011;15980;51.092;13.916;2022-12-10T13:42:26;45.35;;;17.33;;
27863;SDS011;15980;51.092;13.916;2022-12-10T13:47:48;43.50;;;17.40;;
27863;SDS011;15980;51.092;13.916;2022-12-10T13:52:59;56.10;;;22.60;;
27863;SDS011;15980;51.092;13.916;2022-12-10T13:58:22;78.20;;;29.10;;
27863;SDS011;15980;51.092;13.916;2022-12-10T14:03:47;40.97;;;17.42;;
27863;SDS011;15980;51.092;13.916;2022-12-10T14:09:06;40.22;;;15.65;;
27863;SDS011;15980;51.092;13.916;2022-12-10T14:14:20;39.55;;;16.23;;
27863;SDS011;15980;51.092;13.916;2022-12-10T14:19:29;36.63;;;15.27;;
27863;SDS011;15980;51.092;13.916;2022-12-10T14:24:38;42.45;;;16.58;;
27863;SDS011;15980;51.092;13.916;2022-12-10T14:29:45;39.67;;;15.43;;
27863;SDS011;15980;51.092;13.916;2022-12-10T14:34:51;41.47;;;15.73;;
27863;SDS011;15980;51.092;13.916;2022-12-10T14:40:01;38.78;;;14.32;;
27863;SDS011;15980;51.092;13.916;2022-12-10T14:45:11;36.90;;;13.20;;
27863;SDS011;15980;51.092;13.916;2022-12-10T14:50:19;43.05;;;16.15;;
27863;SDS011;15980;51.092;13.916;2022-12-10T14:55:26;46.60;;;17.30;;
27863;SDS011;15980;51.092;13.916;2022-12-10T15:00:31;49.72;;;18.67;;
27863;SDS011;15980;51.092;13.916;2022-12-10T15:05:37;47.33;;;16.95;;
27863;SDS011;15980;51.092;13.916;2022-12-10T15:10:45;52.70;;;19.58;;
27863;SDS011;15980;51.092;13.916;2022-12-10T15:15:54;55.97;;;20.30;;
27863;SDS011;15980;51.092;13.916;2022-12-10T15:21:04;75.82;;;23.80;;
27863;SDS011;15980;51.092;13.916;2022-12-10T15:26:21;66.65;;;24.85;;
27863;SDS011;15980;51.092;13.916;2022-12-10T15:31:29;68.85;;;25.08;;
27863;SDS011;15980;51.092;13.916;2022-12-10T15:36:36;69.40;;;24.48;;
27863;SDS011;15980;51.092;13.916;2022-12-10T15:41:46;60.90;;;22.33;;
27863;SDS011;15980;51.092;13.916;2022-12-10T15:46:57;63.65;;;21.42;;
27863;SDS011;15980;51.092;13.916;2022-12-10T15:52:03;65.70;;;22.00;;
27863;SDS011;15980;51.092;13.916;2022-12-10T15:57:14;70.68;;;24.38;;
27863;SDS011;15980;51.092;13.916;2022-12-10T16:02:24;78.80;;;24.75;;
27863;SDS011;15980;51.092;13.916;2022-12-10T16:07:33;66.50;;;22.60;;
27863;SDS011;15980;51.092;13.916;2022-12-10T16:12:40;65.90;;;23.17;;
27863;SDS011;15980;51.092;13.916;2022-12-10T16:17:46;74.32;;;21.85;;
27863;SDS011;15980;51.092;13.916;2022-12-10T16:22:51;66.00;;;21.67;;
27863;SDS011;15980;51.092;13.916;2022-12-10T16:28:00;59.88;;;20.58;;
27863;SDS011;15980;51.092;13.916;2022-12-10T16:33:04;64.80;;;22.88;;
27863;SDS011;15980;51.092;13.916;2022-12-10T16:38:09;61.40;;;22.13;;
27863;SDS011;15980;51.092;13.916;2022-12-10T16:43:17;61.65;;;21.38;;
27863;SDS011;15980;51.092;13.916;2022-12-10T16:48:24;50.53;;;17.15;;
27863;SDS011;15980;51.092;13.916;2022-12-10T16:53:29;44.58;;;17.52;;
27863;SDS011;15980;51.092;13.916;2022-12-10T16:58:39;47.33;;;17.95;;
27863;SDS011;15980;51.092;13.916;2022-12-10T17:03:44;62.17;;;21.45;;
27863;SDS011;15980;51.092;13.916;2022-12-10T17:08:49;54.40;;;20.23;;
27863;SDS011;15980;51.092;13.916;2022-12-10T17:13:57;50.10;;;18.75;;
27863;SDS011;15980;51.092;13.916;2022-12-10T17:19:03;48.17;;;18.30;;
27863;SDS011;15980;51.092;13.916;2022-12-10T17:24:08;45.10;;;18.17;;
27863;SDS011;15980;51.092;13.916;2022-12-10T17:29:17;50.22;;;19.13;;
27863;SDS011;15980;51.092;13.916;2022-12-10T17:34:24;48.67;;;16.95;;
27863;SDS011;15980;51.092;13.916;2022-12-10T17:39:29;49.35;;;17.00;;
27863;SDS011;15980;51.092;13.916;2022-12-10T17:44:37;48.80;;;17.75;;
27863;SDS011;15980;51.092;13.916;2022-12-10T17:49:42;67.93;;;22.92;;
27863;SDS011;15980;51.092;13.916;2022-12-10T17:54:46;57.08;;;20.65;;
27863;SDS011;15980;51.092;13.916;2022-12-10T17:59:54;63.50;;;23.42;;
27863;SDS011;15980;51.092;13.916;2022-12-10T18:04:58;58.35;;;20.63;;
27863;SDS011;15980;51.092;13.916;2022-12-10T18:10:04;62.13;;;20.70;;
27863;SDS011;15980;51.092;13.916;2022-12-10T18:15:13;51.75;;;18.02;;
27863;SDS011;15980;51.092;13.916;2022-12-10T18:20:20;52.10;;;17.77;;
27863;SDS011;15980;51.092;13.916;2022-12-10T18:25:26;60.47;;;20.52;;
27863;SDS011;15980;51.092;13.916;2022-12-10T18:30:34;58.78;;;19.88;;
27863;SDS011;15980;51.092;13.916;2022-12-10T18:35:39;62.92;;;22.98;;
27863;SDS011;15980;51.092;13.916;2022-12-10T18:40:44;55.97;;;21.30;;
27863;SDS011;15980;51.092;13.916;2022-12-10T18:45:52;53.55;;;20.35;;
27863;SDS011;15980;51.092;13.916;2022-12-10T18:50:57;58.35;;;20.33;;
27863;SDS011;15980;51.092;13.916;2022-12-10T18:56:02;54.70;;;21.02;;
27863;SDS011;15980;51.092;13.916;2022-12-10T19:01:12;61.25;;;22.15;;
27863;SDS011;15980;51.092;13.916;2022-12-10T19:06:19;46.03;;;15.45;;
27863;SDS011;15980;51.092;13.916;2022-12-10T19:11:26;55.50;;;19.83;;
27863;SDS011;15980;51.092;13.916;2022-12-10T19:16:34;59.17;;;21.27;;
27863;SDS011;15980;51.092;13.916;2022-12-10T19:21:39;64.25;;;23.02;;
27863;SDS011;15980;51.092;13.916;2022-12-10T19:26:44;61.03;;;21.23;;
27863;SDS011;15980;51.092;13.916;2022-12-10T19:31:51;95.25;;;30.52;;
27863;SDS011;15980;51.092;13.916;2022-12-10T19:36:56;202.82;;;49.78;;
27863;SDS011;15980;51.092;13.916;2022-12-10T19:42:01;88.57;;;27.00;;
27863;SDS011;15980;51.092;13.916;2022-12-10T19:47:11;62.80;;;22.50;;
27863;SDS011;15980;51.092;13.916;2022-12-10T19:52:20;58.10;;;22.08;;
27863;SDS011;15980;51.092;13.916;2022-12-10T19:57:25;57.83;;;20.70;;
27863;SDS011;15980;51.092;13.916;2022-12-10T20:02:32;68.05;;;24.88;;
27863;SDS011;15980;51.092;13.916;2022-12-10T20:07:37;63.95;;;21.40;;
27863;SDS011;15980;51.092;13.916;2022-12-10T20:12:42;54.58;;;19.42;;
27863;SDS011;15980;51.092;13.916;2022-12-10T20:17:50;50.10;;;18.92;;
27863;SDS011;15980;51.092;13.916;2022-12-10T20:22:56;49.95;;;17.95;;
27863;SDS011;15980;51.092;13.916;2022-12-10T20:28:02;57.78;;;20.20;;
27863;SDS011;15980;51.092;13.916;2022-12-10T20:33:11;54.58;;;20.90;;
27863;SDS011;15980;51.092;13.916;2022-12-10T20:38:36;50.00;;;18.77;;
27863;SDS011;15980;51.092;13.916;2022-12-10T20:43:41;51.08;;;19.58;;
27863;SDS011;15980;51.092;13.916;2022-12-10T20:48:49;47.80;;;17.55;;
27863;SDS011;15980;51.092;13.916;2022-12-10T20:53:54;46.50;;;17.50;;
27863;SDS011;15980;51.092;13.916;2022-12-10T20:58:59;52.53;;;18.55;;
27863;SDS011;15980;51.092;13.916;2022-12-10T21:04:07;52.85;;;19.33;;
27863;SDS011;15980;51.092;13.916;2022-12-10T21:09:12;56.00;;;18.83;;
27863;SDS011;15980;51.092;13.916;2022-12-10T21:14:17;55.17;;;20.15;;
27863;SDS011;15980;51.092;13.916;2022-12-10T21:19:44;48.00;;;18.30;;
27863;SDS011;15980;51.092;13.916;2022-12-10T21:24:49;49.53;;;17.88;;
27863;SDS011;15980;51.092;13.916;2022-12-10T21:29:54;51.10;;;18.58;;
27863;SDS011;15980;51.092;13.916;2022-12-10T21:46:30;49.88;;;16.55;;
27863;SDS011;15980;51.092;13.916;2022-12-10T21:51:35;48.72;;;17.38;;
27863;SDS011;15980;51.092;13.916;2022-12-10T21:56:40;45.60;;;16.13;;
27863;SDS011;15980;51.092;13.916;2022-12-10T22:01:48;50.47;;;18.10;;
27863;SDS011;15980;51.092;13.916;2022-12-10T22:06:53;50.13;;;17.58;;
27863;SDS011;15980;51.092;13.916;2022-12-10T22:11:58;48.40;;;17.70;;
27863;SDS011;15980;51.092;13.916;2022-12-10T22:17:05;46.10;;;17.80;;
27863;SDS011;15980;51.092;13.916;2022-12-10T22:22:10;48.33;;;16.98;;
27863;SDS011;15980;51.092;13.916;2022-12-10T22:27:15;45.47;;;17.52;;
27863;SDS011;15980;51.092;13.916;2022-12-10T22:32:22;46.80;;;18.02;;
27863;SDS011;15980;51.092;13.916;2022-12-10T22:37:27;53.58;;;19.35;;
27863;SDS011;15980;51.092;13.916;2022-12-10T22:42:32;43.53;;;17.27;;
27863;SDS011;15980;51.092;13.916;2022-12-10T22:47:41;49.80;;;18.73;;
27863;SDS011;15980;51.092;13.916;2022-12-10T22:52:46;46.70;;;16.83;;
27863;SDS011;15980;51.092;13.916;2022-12-10T22:57:51;45.25;;;17.00;;
27863;SDS011;15980;51.092;13.916;2022-12-10T23:02:59;50.95;;;19.20;;
27863;SDS011;15980;51.092;13.916;2022-12-10T23:08:04;51.67;;;18.95;;
27863;SDS011;15980;51.092;13.916;2022-12-10T23:13:10;42.97;;;17.20;;
27863;SDS011;15980;51.092;13.916;2022-12-10T23:18:23;51.38;;;17.80;;
27863;SDS011;15980;51.092;13.916;2022-12-10T23:23:28;45.40;;;17.13;;
27863;SDS011;15980;51.092;13.916;2022-12-10T23:28:34;42.72;;;15.82;;
27863;SDS011;15980;51.092;13.916;2022-12-10T23:33:42;49.25;;;17.65;;
27863;SDS011;15980;51.092;13.916;2022-12-10T23:38:47;48.97;;;18.67;;
27863;SDS011;15980;51.092;13.916;2022-12-10T23:43:52;43.40;;;16.73;;
27863;SDS011;15980;51.092;13.916;2022-12-10T23:49:00;43.42;;;15.45;;
27863;SDS011;15980;51.092;13.916;2022-12-10T23:54:05;47.53;;;16.85;;
27863;SDS011;15980;51.092;13.916;2022-12-10T23:59:10;45.05;;;17.58;;
